Pfugerville's Hourly Summary for Sunday, March 19, 2017
Hour Temp
(f)
RH
(%)
Solar Rad.
(MJ/m2)
Rainfall
(in)
Wind
(mph)
3/19/2017 12:00 AM 69 100 0 0 5.71
3/19/2017 1:00 AM 68 100 0 0 6.99
3/19/2017 2:00 AM 66 100 0 0 5.04
3/19/2017 3:00 AM 65 100 0 0 5.18
3/19/2017 4:00 AM 64 100 0 0 6.13
3/19/2017 5:00 AM 64 100 0 0 7.54
3/19/2017 6:00 AM 64 100 0 0 8.37
3/19/2017 7:00 AM 65 100 0 0 7.77
3/19/2017 8:00 AM 65 100 0.01 0 6.72
3/19/2017 9:00 AM 65 100 0.16 0 7.01
3/19/2017 10:00 AM 67 100 0.62 0 8.79
3/19/2017 11:00 AM 68 100 0.6 0 10.24
3/19/2017 12:00 PM 71 89 2.24 0 10.53
3/19/2017 1:00 PM 74 82 2.87 0 11.54
3/19/2017 2:00 PM 75 72 3.03 0 12.42
3/19/2017 3:00 PM 78 63 3.02 0 11.45
3/19/2017 4:00 PM 79 60 2.75 0 11.53
3/19/2017 5:00 PM 80 57 1.95 0 11.14
3/19/2017 6:00 PM 81 55 0.99 0 10.81
3/19/2017 7:00 PM 80 55 0.25 0 10.59
3/19/2017 8:00 PM 77 56 0.05 0 7.08
3/19/2017 9:00 PM 73 64 0 0 3.87
3/19/2017 10:00 PM 69 71 0 0 3.28
3/19/2017 11:00 PM 68 84 0 0 5.51
Data Summary 70 83 18.54 0.00 8.14